Elgin, IL (60120)

11:07 AM CDT en Septiembre 21, 2014 (GMT -0500)
Trout Park | Change Station
CLOSE
Current Station
Estación meteorológica personal
Location: Elgin, IL
Altura: 817 ft
Estaciones meteorológicas cercanas

Alt 817 ft 42.06 °N, 88.27 °W | Updated 1 second ago

Nublado
Nublado
58.1 ° F
Sensación térmica 58.1 ° F
N
3.8
Viento Variable Viento desde Este
Gusts 12.3 mph

Hoy
Alta -- | Baja -- ° F
--% Posibilidad de precipitaciones
Ayer
Alta -- | Baja -- ° F
Precip. -- pul
6:39 AM 6:51 PM
Creciente menguante, 6% visible
Presión 29.88 pul
Visibilidad 10.0 Millas
Nubes Muy nublado 2800 ft
Nublado 3500 ft
Punto de rocío 51 ° F
Humedad 76%
Precipitaciones 0.07 pul
Espesor de la nieve No disponible.
UV 2 de una escala de 12
Polen 3.90 de una escala de 12
Ozono Buena
PM2.5 Buena
Flu Activity No disponible.
METAR KDPA 211552Z 31015G24KT 10SM BKN028 OVC035 16/10 A2989 RMK AO2 SLP119 T01560100 $

More Conditions Fewer Conditions

Presión 29.88 pul
Visibilidad 10.0 Millas
Nubes Muy nublado 2800 ft
Nublado 3500 ft
Punto de rocío 51 ° F
Humedad 76%
Precipitaciones 0.07 pul
Espesor de la nieve No disponible.
UV 2 de una escala de 12
Polen 3.90 de una escala de 12
Ozono Buena
PM2.5 Buena
Flu Activity No disponible.
METAR KDPA 211552Z 31015G24KT 10SM BKN028 OVC035 16/10 A2989 RMK AO2 SLP119 T01560100 $

More Conditions Fewer Conditions

10-Day Weather Forecast

Almanac

Astronomía

Sep. 21, 2014 Salida Puesta
Hora real 6:39 AM CDT 6:51 PM CDT
Crepúsculo civil 6:11 AM CDT 7:19 PM CDT
Crepúsculo náutico 5:38 AM CDT 7:52 PM CDT
Crepúsculo astronómico 5:05 AM CDT 8:25 PM CDT
Luna 4:10 AM CDT 5:29 PM CDT
Horas de luz 13h 08m
Horas de luz
12h 12m
Tomorrow will be 2m 48s shorter.
Creciente menguante, 6% of the Moon is Illuminated
Hoy
Creciente menguante
Sep 24
Nueva
Oct 1
Cuarto creciente
Oct 8
Luna llena
Oct 15
Cuarto menguante

Extremos de hoy

Máximos del estado Bajos del estado

Community

WunderPhotos

Upload Photos

1,755,181 ¡fotos cargadas!

Nearby

Calidad del aire

  Calidad del aire Índice AQ Contaminante
Ayer Moderada
PM2.5
Ayer Buena
OZONE
Real Buena
PM2.5
Real Buena
OZONE
Domingo Buena
PM2.5
Lunes Buena
PM2.5
Martes Moderada
PM2.5

Grosos de nieve

Estación Profundido Altura
No tenemos constancia de nieve nueva.

Actividad de terremotos

Ciudad Distance Mag. Tiempo y dato
No hay informes recientes de la actividad sísmica.
Magnitud mínima muestra es 2,5.

Temperaturas de aguas costeras

Lugar Temperatura
Sin partes meteorológicos de las estaciones

Estaciones meteorológicas cercanas